sensor_id;sensor_type;location;lat;lon;timestamp;P1;durP1;ratioP1;P2;durP2;ratioP2
29686;SDS011;16599;47.078;15.536;2023-09-08T00:00:19;4.32;;;2.10;;
29686;SDS011;16599;47.078;15.536;2023-09-08T00:02:46;5.05;;;2.30;;
29686;SDS011;16599;47.078;15.536;2023-09-08T00:05:13;4.47;;;2.15;;
29686;SDS011;16599;47.078;15.536;2023-09-08T00:07:40;3.28;;;1.60;;
29686;SDS011;16599;47.078;15.536;2023-09-08T00:10:08;2.25;;;1.83;;
29686;SDS011;16599;47.078;15.536;2023-09-08T00:12:36;3.15;;;1.95;;
29686;SDS011;16599;47.078;15.536;2023-09-08T00:15:03;2.67;;;2.10;;
29686;SDS011;16599;47.078;15.536;2023-09-08T00:17:30;3.70;;;2.05;;
29686;SDS011;16599;47.078;15.536;2023-09-08T00:19:57;6.60;;;2.67;;
29686;SDS011;16599;47.078;15.536;2023-09-08T00:22:24;5.20;;;2.00;;
29686;SDS011;16599;47.078;15.536;2023-09-08T00:24:51;2.88;;;2.00;;
29686;SDS011;16599;47.078;15.536;2023-09-08T00:27:18;4.72;;;3.00;;
29686;SDS011;16599;47.078;15.536;2023-09-08T00:29:44;5.15;;;2.35;;
29686;SDS011;16599;47.078;15.536;2023-09-08T00:32:11;4.15;;;2.20;;
29686;SDS011;16599;47.078;15.536;2023-09-08T00:34:40;3.25;;;2.03;;
29686;SDS011;16599;47.078;15.536;2023-09-08T00:37:07;3.17;;;2.30;;
29686;SDS011;16599;47.078;15.536;2023-09-08T00:39:37;2.72;;;2.38;;
29686;SDS011;16599;47.078;15.536;2023-09-08T00:42:04;3.67;;;2.50;;
29686;SDS011;16599;47.078;15.536;2023-09-08T00:44:33;3.28;;;1.95;;
29686;SDS011;16599;47.078;15.536;2023-09-08T00:47:00;3.90;;;2.13;;
29686;SDS011;16599;47.078;15.536;2023-09-08T00:49:27;3.70;;;2.15;;
29686;SDS011;16599;47.078;15.536;2023-09-08T00:51:55;7.88;;;2.15;;
29686;SDS011;16599;47.078;15.536;2023-09-08T00:54:22;2.33;;;2.13;;
29686;SDS011;16599;47.078;15.536;2023-09-08T00:56:49;2.70;;;2.15;;
29686;SDS011;16599;47.078;15.536;2023-09-08T00:59:21;4.15;;;2.38;;
29686;SDS011;16599;47.078;15.536;2023-09-08T01:01:48;2.65;;;1.65;;
29686;SDS011;16599;47.078;15.536;2023-09-08T01:04:15;3.80;;;2.17;;
29686;SDS011;16599;47.078;15.536;2023-09-08T01:06:43;5.38;;;2.90;;
29686;SDS011;16599;47.078;15.536;2023-09-08T01:09:11;3.67;;;2.60;;
29686;SDS011;16599;47.078;15.536;2023-09-08T01:11:39;4.18;;;2.15;;
29686;SDS011;16599;47.078;15.536;2023-09-08T01:14:06;2.28;;;1.58;;
29686;SDS011;16599;47.078;15.536;2023-09-08T01:16:34;3.60;;;1.90;;
29686;SDS011;16599;47.078;15.536;2023-09-08T01:19:01;5.15;;;1.98;;
29686;SDS011;16599;47.078;15.536;2023-09-08T01:26:52;3.97;;;2.63;;
29686;SDS011;16599;47.078;15.536;2023-09-08T01:29:19;2.72;;;1.98;;
29686;SDS011;16599;47.078;15.536;2023-09-08T01:31:50;3.80;;;2.15;;
29686;SDS011;16599;47.078;15.536;2023-09-08T01:34:18;8.15;;;2.15;;
29686;SDS011;16599;47.078;15.536;2023-09-08T01:36:45;4.45;;;2.08;;
29686;SDS011;16599;47.078;15.536;2023-09-08T01:39:12;5.13;;;2.28;;
29686;SDS011;16599;47.078;15.536;2023-09-08T01:41:39;3.10;;;2.00;;
29686;SDS011;16599;47.078;15.536;2023-09-08T01:44:06;2.78;;;1.52;;
29686;SDS011;16599;47.078;15.536;2023-09-08T01:46:36;4.18;;;2.08;;
29686;SDS011;16599;47.078;15.536;2023-09-08T01:49:04;4.28;;;2.38;;
29686;SDS011;16599;47.078;15.536;2023-09-08T01:51:31;4.15;;;2.10;;
29686;SDS011;16599;47.078;15.536;2023-09-08T01:53:58;2.72;;;1.73;;
29686;SDS011;16599;47.078;15.536;2023-09-08T01:56:25;3.70;;;2.45;;
29686;SDS011;16599;47.078;15.536;2023-09-08T01:58:52;4.85;;;2.00;;
29686;SDS011;16599;47.078;15.536;2023-09-08T02:01:19;5.07;;;2.15;;
29686;SDS011;16599;47.078;15.536;2023-09-08T02:03:46;4.30;;;2.10;;
29686;SDS011;16599;47.078;15.536;2023-09-08T02:06:13;2.60;;;1.92;;
29686;SDS011;16599;47.078;15.536;2023-09-08T02:08:40;4.30;;;1.92;;
29686;SDS011;16599;47.078;15.536;2023-09-08T02:11:06;4.28;;;2.55;;
29686;SDS011;16599;47.078;15.536;2023-09-08T02:13:33;8.75;;;1.95;;
29686;SDS011;16599;47.078;15.536;2023-09-08T02:16:00;3.25;;;1.63;;
29686;SDS011;16599;47.078;15.536;2023-09-08T02:18:27;4.70;;;1.77;;
29686;SDS011;16599;47.078;15.536;2023-09-08T02:20:54;2.97;;;2.00;;
29686;SDS011;16599;47.078;15.536;2023-09-08T02:23:21;6.18;;;2.28;;
29686;SDS011;16599;47.078;15.536;2023-09-08T02:25:48;2.13;;;1.85;;
29686;SDS011;16599;47.078;15.536;2023-09-08T02:28:15;6.68;;;2.88;;
29686;SDS011;16599;47.078;15.536;2023-09-08T02:30:42;5.63;;;1.88;;
29686;SDS011;16599;47.078;15.536;2023-09-08T02:33:09;3.05;;;1.88;;
29686;SDS011;16599;47.078;15.536;2023-09-08T02:35:39;3.30;;;1.73;;
29686;SDS011;16599;47.078;15.536;2023-09-08T02:38:06;2.83;;;1.80;;
29686;SDS011;16599;47.078;15.536;2023-09-08T02:40:33;9.20;;;2.13;;
29686;SDS011;16599;47.078;15.536;2023-09-08T02:43:01;4.90;;;2.28;;
29686;SDS011;16599;47.078;15.536;2023-09-08T02:45:28;2.67;;;1.85;;
29686;SDS011;16599;47.078;15.536;2023-09-08T02:47:58;4.28;;;2.20;;
29686;SDS011;16599;47.078;15.536;2023-09-08T02:50:25;3.28;;;1.92;;
29686;SDS011;16599;47.078;15.536;2023-09-08T02:52:52;4.57;;;1.92;;
29686;SDS011;16599;47.078;15.536;2023-09-08T02:55:19;7.50;;;2.33;;
29686;SDS011;16599;47.078;15.536;2023-09-08T02:57:46;4.53;;;2.22;;
29686;SDS011;16599;47.078;15.536;2023-09-08T03:00:13;4.40;;;1.85;;
29686;SDS011;16599;47.078;15.536;2023-09-08T03:02:40;4.05;;;2.58;;
29686;SDS011;16599;47.078;15.536;2023-09-08T03:05:07;15.73;;;1.95;;
29686;SDS011;16599;47.078;15.536;2023-09-08T03:07:34;4.07;;;1.70;;
29686;SDS011;16599;47.078;15.536;2023-09-08T03:10:03;4.05;;;2.13;;
29686;SDS011;16599;47.078;15.536;2023-09-08T03:12:31;5.03;;;2.33;;
29686;SDS011;16599;47.078;15.536;2023-09-08T03:14:58;1.77;;;1.25;;
29686;SDS011;16599;47.078;15.536;2023-09-08T03:17:26;4.57;;;2.13;;
29686;SDS011;16599;47.078;15.536;2023-09-08T03:19:54;4.22;;;1.90;;
29686;SDS011;16599;47.078;15.536;2023-09-08T03:22:20;2.17;;;1.27;;
29686;SDS011;16599;47.078;15.536;2023-09-08T03:24:48;1.27;;;1.17;;
29686;SDS011;16599;47.078;15.536;2023-09-08T03:27:14;1.83;;;1.45;;
29686;SDS011;16599;47.078;15.536;2023-09-08T03:29:41;5.38;;;1.83;;
29686;SDS011;16599;47.078;15.536;2023-09-08T03:32:08;4.35;;;2.85;;
29686;SDS011;16599;47.078;15.536;2023-09-08T03:34:35;4.38;;;1.88;;
29686;SDS011;16599;47.078;15.536;2023-09-08T03:37:06;2.38;;;1.45;;
29686;SDS011;16599;47.078;15.536;2023-09-08T03:39:32;2.15;;;1.58;;
29686;SDS011;16599;47.078;15.536;2023-09-08T03:42:00;3.03;;;1.70;;
29686;SDS011;16599;47.078;15.536;2023-09-08T03:44:27;2.97;;;1.40;;
29686;SDS011;16599;47.078;15.536;2023-09-08T03:46:54;2.42;;;1.80;;
29686;SDS011;16599;47.078;15.536;2023-09-08T03:49:21;5.57;;;1.95;;
29686;SDS011;16599;47.078;15.536;2023-09-08T03:51:48;3.75;;;1.92;;
29686;SDS011;16599;47.078;15.536;2023-09-08T03:54:15;3.85;;;1.75;;
29686;SDS011;16599;47.078;15.536;2023-09-08T03:56:42;5.10;;;2.55;;
29686;SDS011;16599;47.078;15.536;2023-09-08T03:59:09;8.02;;;2.08;;
29686;SDS011;16599;47.078;15.536;2023-09-08T04:01:35;2.63;;;1.80;;
29686;SDS011;16599;47.078;15.536;2023-09-08T04:04:02;1.48;;;1.38;;
29686;SDS011;16599;47.078;15.536;2023-09-08T04:06:29;4.72;;;2.22;;
29686;SDS011;16599;47.078;15.536;2023-09-08T04:08:56;4.00;;;1.80;;
29686;SDS011;16599;47.078;15.536;2023-09-08T04:11:23;1.98;;;1.30;;
29686;SDS011;16599;47.078;15.536;2023-09-08T04:13:52;2.80;;;1.38;;
29686;SDS011;16599;47.078;15.536;2023-09-08T04:16:18;2.13;;;1.60;;
29686;SDS011;16599;47.078;15.536;2023-09-08T04:18:45;1.38;;;1.13;;
29686;SDS011;16599;47.078;15.536;2023-09-08T04:21:13;3.03;;;1.83;;
29686;SDS011;16599;47.078;15.536;2023-09-08T04:23:40;3.55;;;2.42;;
29686;SDS011;16599;47.078;15.536;2023-09-08T04:26:07;4.20;;;1.80;;
29686;SDS011;16599;47.078;15.536;2023-09-08T04:28:33;1.92;;;1.40;;
29686;SDS011;16599;47.078;15.536;2023-09-08T04:31:00;2.58;;;1.60;;
29686;SDS011;16599;47.078;15.536;2023-09-08T04:33:27;5.53;;;2.05;;
29686;SDS011;16599;47.078;15.536;2023-09-08T04:35:55;3.15;;;1.95;;
29686;SDS011;16599;47.078;15.536;2023-09-08T04:38:22;2.85;;;2.17;;
29686;SDS011;16599;47.078;15.536;2023-09-08T04:40:49;2.70;;;1.98;;
29686;SDS011;16599;47.078;15.536;2023-09-08T04:43:16;4.47;;;1.90;;
29686;SDS011;16599;47.078;15.536;2023-09-08T04:45:43;1.50;;;1.40;;
29686;SDS011;16599;47.078;15.536;2023-09-08T04:48:10;2.15;;;1.45;;
29686;SDS011;16599;47.078;15.536;2023-09-08T04:50:37;1.73;;;1.42;;
29686;SDS011;16599;47.078;15.536;2023-09-08T04:53:03;3.08;;;1.65;;
29686;SDS011;16599;47.078;15.536;2023-09-08T04:55:30;3.50;;;1.73;;
29686;SDS011;16599;47.078;15.536;2023-09-08T04:57:57;2.78;;;2.00;;
29686;SDS011;16599;47.078;15.536;2023-09-08T05:00:24;1.85;;;1.63;;
29686;SDS011;16599;47.078;15.536;2023-09-08T05:02:51;2.85;;;1.88;;
29686;SDS011;16599;47.078;15.536;2023-09-08T05:05:18;5.65;;;2.78;;
29686;SDS011;16599;47.078;15.536;2023-09-08T05:07:45;2.38;;;1.77;;
29686;SDS011;16599;47.078;15.536;2023-09-08T05:10:12;4.00;;;2.38;;
29686;SDS011;16599;47.078;15.536;2023-09-08T05:12:39;2.40;;;1.63;;
29686;SDS011;16599;47.078;15.536;2023-09-08T05:15:06;3.55;;;1.98;;
29686;SDS011;16599;47.078;15.536;2023-09-08T05:17:40;3.67;;;1.30;;
29686;SDS011;16599;47.078;15.536;2023-09-08T05:20:07;2.13;;;1.45;;
29686;SDS011;16599;47.078;15.536;2023-09-08T05:22:35;5.05;;;2.22;;
29686;SDS011;16599;47.078;15.536;2023-09-08T05:25:03;3.42;;;1.90;;
29686;SDS011;16599;47.078;15.536;2023-09-08T05:27:30;13.35;;;2.20;;
29686;SDS011;16599;47.078;15.536;2023-09-08T05:29:58;11.73;;;2.90;;
29686;SDS011;16599;47.078;15.536;2023-09-08T05:32:25;2.55;;;1.50;;
29686;SDS011;16599;47.078;15.536;2023-09-08T05:34:52;2.63;;;1.85;;
29686;SDS011;16599;47.078;15.536;2023-09-08T05:37:19;3.58;;;1.58;;
29686;SDS011;16599;47.078;15.536;2023-09-08T05:39:46;3.20;;;1.30;;
29686;SDS011;16599;47.078;15.536;2023-09-08T05:42:12;2.35;;;1.88;;
29686;SDS011;16599;47.078;15.536;2023-09-08T05:44:39;3.25;;;2.10;;
29686;SDS011;16599;47.078;15.536;2023-09-08T05:47:06;1.98;;;1.55;;
29686;SDS011;16599;47.078;15.536;2023-09-08T05:49:33;12.63;;;1.63;;
29686;SDS011;16599;47.078;15.536;2023-09-08T05:52:02;3.38;;;1.77;;
29686;SDS011;16599;47.078;15.536;2023-09-08T05:54:30;5.00;;;2.10;;
29686;SDS011;16599;47.078;15.536;2023-09-08T05:56:57;2.40;;;1.77;;
29686;SDS011;16599;47.078;15.536;2023-09-08T05:59:24;4.95;;;1.83;;
29686;SDS011;16599;47.078;15.536;2023-09-08T06:01:50;4.75;;;1.98;;
29686;SDS011;16599;47.078;15.536;2023-09-08T06:04:17;6.35;;;2.30;;
29686;SDS011;16599;47.078;15.536;2023-09-08T06:06:44;4.65;;;2.53;;
29686;SDS011;16599;47.078;15.536;2023-09-08T06:09:11;1.73;;;1.63;;
29686;SDS011;16599;47.078;15.536;2023-09-08T06:11:40;2.78;;;1.83;;
29686;SDS011;16599;47.078;15.536;2023-09-08T06:14:07;3.75;;;2.13;;
29686;SDS011;16599;47.078;15.536;2023-09-08T06:16:39;3.47;;;2.15;;
29686;SDS011;16599;47.078;15.536;2023-09-08T06:19:06;2.05;;;1.65;;
29686;SDS011;16599;47.078;15.536;2023-09-08T06:21:33;4.85;;;1.98;;
29686;SDS011;16599;47.078;15.536;2023-09-08T06:24:00;9.40;;;2.80;;
29686;SDS011;16599;47.078;15.536;2023-09-08T06:26:27;3.55;;;2.13;;
29686;SDS011;16599;47.078;15.536;2023-09-08T06:28:54;3.42;;;2.35;;
29686;SDS011;16599;47.078;15.536;2023-09-08T06:31:20;6.57;;;2.53;;
29686;SDS011;16599;47.078;15.536;2023-09-08T06:33:47;3.58;;;2.08;;
29686;SDS011;16599;47.078;15.536;2023-09-08T06:36:18;6.63;;;2.50;;
29686;SDS011;16599;47.078;15.536;2023-09-08T06:38:45;4.40;;;2.60;;
29686;SDS011;16599;47.078;15.536;2023-09-08T06:41:12;7.18;;;3.00;;
29686;SDS011;16599;47.078;15.536;2023-09-08T06:43:41;3.85;;;1.85;;
29686;SDS011;16599;47.078;15.536;2023-09-08T06:46:09;2.95;;;1.77;;
29686;SDS011;16599;47.078;15.536;2023-09-08T06:48:38;3.30;;;2.28;;
29686;SDS011;16599;47.078;15.536;2023-09-08T06:51:04;2.72;;;2.25;;
29686;SDS011;16599;47.078;15.536;2023-09-08T06:53:32;7.47;;;2.97;;
29686;SDS011;16599;47.078;15.536;2023-09-08T06:55:58;9.13;;;2.42;;
29686;SDS011;16599;47.078;15.536;2023-09-08T06:58:25;5.65;;;3.03;;
29686;SDS011;16599;47.078;15.536;2023-09-08T07:00:53;12.73;;;2.55;;
29686;SDS011;16599;47.078;15.536;2023-09-08T07:03:21;3.15;;;2.20;;
29686;SDS011;16599;47.078;15.536;2023-09-08T07:05:53;3.13;;;2.30;;
29686;SDS011;16599;47.078;15.536;2023-09-08T07:08:20;7.85;;;2.47;;
29686;SDS011;16599;47.078;15.536;2023-09-08T07:10:51;7.43;;;2.95;;
29686;SDS011;16599;47.078;15.536;2023-09-08T07:13:19;5.70;;;2.75;;
29686;SDS011;16599;47.078;15.536;2023-09-08T07:15:46;4.05;;;2.88;;
29686;SDS011;16599;47.078;15.536;2023-09-08T07:18:13;4.40;;;2.25;;
29686;SDS011;16599;47.078;15.536;2023-09-08T07:20:40;4.45;;;2.78;;
29686;SDS011;16599;47.078;15.536;2023-09-08T07:23:20;4.22;;;2.92;;
29686;SDS011;16599;47.078;15.536;2023-09-08T07:25:47;4.70;;;2.42;;
29686;SDS011;16599;47.078;15.536;2023-09-08T07:28:15;3.53;;;2.33;;
29686;SDS011;16599;47.078;15.536;2023-09-08T07:30:43;4.63;;;2.40;;
29686;SDS011;16599;47.078;15.536;2023-09-08T07:33:10;2.90;;;2.15;;
29686;SDS011;16599;47.078;15.536;2023-09-08T07:35:37;13.20;;;3.42;;
29686;SDS011;16599;47.078;15.536;2023-09-08T07:38:05;4.32;;;2.40;;
29686;SDS011;16599;47.078;15.536;2023-09-08T07:40:35;2.67;;;2.28;;
29686;SDS011;16599;47.078;15.536;2023-09-08T07:43:21;4.40;;;2.10;;
29686;SDS011;16599;47.078;15.536;2023-09-08T07:45:48;10.68;;;2.85;;
29686;SDS011;16599;47.078;15.536;2023-09-08T07:48:15;3.60;;;2.63;;
29686;SDS011;16599;47.078;15.536;2023-09-08T07:50:42;5.35;;;3.17;;
29686;SDS011;16599;47.078;15.536;2023-09-08T07:53:09;5.05;;;2.58;;
29686;SDS011;16599;47.078;15.536;2023-09-08T07:55:36;4.10;;;2.58;;
29686;SDS011;16599;47.078;15.536;2023-09-08T07:58:03;3.45;;;2.60;;
29686;SDS011;16599;47.078;15.536;2023-09-08T08:00:30;3.83;;;2.35;;
29686;SDS011;16599;47.078;15.536;2023-09-08T08:02:57;6.50;;;3.15;;
29686;SDS011;16599;47.078;15.536;2023-09-08T08:05:24;4.72;;;2.97;;
29686;SDS011;16599;47.078;15.536;2023-09-08T08:07:52;6.07;;;2.95;;
29686;SDS011;16599;47.078;15.536;2023-09-08T08:10:19;5.35;;;3.03;;
29686;SDS011;16599;47.078;15.536;2023-09-08T08:12:46;3.53;;;2.63;;
29686;SDS011;16599;47.078;15.536;2023-09-08T08:15:12;5.60;;;2.78;;
29686;SDS011;16599;47.078;15.536;2023-09-08T08:17:40;5.10;;;3.03;;
29686;SDS011;16599;47.078;15.536;2023-09-08T08:20:07;4.30;;;2.70;;
29686;SDS011;16599;47.078;15.536;2023-09-08T08:22:46;6.13;;;2.78;;
29686;SDS011;16599;47.078;15.536;2023-09-08T08:25:13;4.60;;;2.95;;
29686;SDS011;16599;47.078;15.536;2023-09-08T08:27:40;4.15;;;2.70;;
29686;SDS011;16599;47.078;15.536;2023-09-08T08:30:07;4.97;;;2.65;;
29686;SDS011;16599;47.078;15.536;2023-09-08T08:32:34;7.60;;;3.53;;
29686;SDS011;16599;47.078;15.536;2023-09-08T08:35:01;5.60;;;3.45;;
29686;SDS011;16599;47.078;15.536;2023-09-08T08:37:30;4.78;;;2.67;;
29686;SDS011;16599;47.078;15.536;2023-09-08T08:39:57;5.40;;;3.00;;
29686;SDS011;16599;47.078;15.536;2023-09-08T08:42:29;4.90;;;2.83;;
29686;SDS011;16599;47.078;15.536;2023-09-08T08:44:58;3.55;;;2.45;;
29686;SDS011;16599;47.078;15.536;2023-09-08T08:47:27;5.18;;;3.20;;
29686;SDS011;16599;47.078;15.536;2023-09-08T08:49:56;4.43;;;2.75;;
29686;SDS011;16599;47.078;15.536;2023-09-08T08:52:27;12.95;;;3.63;;
29686;SDS011;16599;47.078;15.536;2023-09-08T08:54:55;4.18;;;2.30;;
29686;SDS011;16599;47.078;15.536;2023-09-08T08:57:23;5.05;;;2.80;;
29686;SDS011;16599;47.078;15.536;2023-09-08T08:59:50;11.57;;;3.25;;
29686;SDS011;16599;47.078;15.536;2023-09-08T09:02:18;4.78;;;2.97;;
29686;SDS011;16599;47.078;15.536;2023-09-08T09:04:45;10.57;;;3.30;;
29686;SDS011;16599;47.078;15.536;2023-09-08T09:07:13;7.80;;;3.53;;
29686;SDS011;16599;47.078;15.536;2023-09-08T09:09:41;8.57;;;3.15;;
29686;SDS011;16599;47.078;15.536;2023-09-08T09:12:08;6.65;;;2.90;;
29686;SDS011;16599;47.078;15.536;2023-09-08T09:14:35;8.30;;;3.70;;
29686;SDS011;16599;47.078;15.536;2023-09-08T09:17:02;3.95;;;2.80;;
29686;SDS011;16599;47.078;15.536;2023-09-08T09:19:31;6.45;;;3.13;;
29686;SDS011;16599;47.078;15.536;2023-09-08T09:21:59;6.25;;;3.55;;
29686;SDS011;16599;47.078;15.536;2023-09-08T09:26:59;7.30;;;3.33;;
29686;SDS011;16599;47.078;15.536;2023-09-08T09:29:27;5.60;;;3.38;;
29686;SDS011;16599;47.078;15.536;2023-09-08T09:32:03;6.72;;;3.33;;
29686;SDS011;16599;47.078;15.536;2023-09-08T09:34:34;11.00;;;3.47;;
29686;SDS011;16599;47.078;15.536;2023-09-08T09:37:01;5.90;;;3.90;;
29686;SDS011;16599;47.078;15.536;2023-09-08T09:39:31;5.72;;;2.88;;
29686;SDS011;16599;47.078;15.536;2023-09-08T09:41:58;6.93;;;3.22;;
29686;SDS011;16599;47.078;15.536;2023-09-08T09:44:25;5.03;;;3.08;;
29686;SDS011;16599;47.078;15.536;2023-09-08T09:46:52;5.70;;;3.75;;
29686;SDS011;16599;47.078;15.536;2023-09-08T09:49:21;4.50;;;2.92;;
29686;SDS011;16599;47.078;15.536;2023-09-08T09:51:50;3.88;;;2.92;;
29686;SDS011;16599;47.078;15.536;2023-09-08T09:54:19;4.65;;;3.05;;
29686;SDS011;16599;47.078;15.536;2023-09-08T09:56:46;11.15;;;3.03;;
29686;SDS011;16599;47.078;15.536;2023-09-08T09:59:17;7.30;;;3.53;;
29686;SDS011;16599;47.078;15.536;2023-09-08T10:01:45;4.25;;;2.80;;
29686;SDS011;16599;47.078;15.536;2023-09-08T10:04:12;5.32;;;3.35;;
29686;SDS011;16599;47.078;15.536;2023-09-08T10:06:42;9.48;;;2.97;;
29686;SDS011;16599;47.078;15.536;2023-09-08T10:09:11;4.72;;;2.97;;
29686;SDS011;16599;47.078;15.536;2023-09-08T10:11:44;4.72;;;2.53;;
29686;SDS011;16599;47.078;15.536;2023-09-08T10:14:17;3.72;;;2.58;;
29686;SDS011;16599;47.078;15.536;2023-09-08T10:16:45;6.47;;;2.90;;
29686;SDS011;16599;47.078;15.536;2023-09-08T10:23:12;8.48;;;3.28;;
29686;SDS011;16599;47.078;15.536;2023-09-08T10:25:55;8.55;;;3.05;;
29686;SDS011;16599;47.078;15.536;2023-09-08T10:28:29;3.97;;;2.63;;
29686;SDS011;16599;47.078;15.536;2023-09-08T10:30:58;9.88;;;3.38;;
29686;SDS011;16599;47.078;15.536;2023-09-08T10:33:26;6.25;;;3.25;;
29686;SDS011;16599;47.078;15.536;2023-09-08T10:35:53;5.47;;;3.47;;
29686;SDS011;16599;47.078;15.536;2023-09-08T10:38:25;4.93;;;3.05;;
29686;SDS011;16599;47.078;15.536;2023-09-08T10:41:24;6.50;;;3.50;;
29686;SDS011;16599;47.078;15.536;2023-09-08T10:43:44;7.68;;;3.15;;
29686;SDS011;16599;47.078;15.536;2023-09-08T10:49:18;9.70;;;3.10;;
29686;SDS011;16599;47.078;15.536;2023-09-08T10:51:47;6.25;;;3.40;;
29686;SDS011;16599;47.078;15.536;2023-09-08T10:54:40;7.32;;;3.20;;
29686;SDS011;16599;47.078;15.536;2023-09-08T10:57:14;7.10;;;3.22;;
29686;SDS011;16599;47.078;15.536;2023-09-08T11:02:40;4.40;;;2.90;;
29686;SDS011;16599;47.078;15.536;2023-09-08T11:05:09;5.18;;;2.83;;
29686;SDS011;16599;47.078;15.536;2023-09-08T11:07:40;7.28;;;3.13;;
29686;SDS011;16599;47.078;15.536;2023-09-08T11:10:09;3.55;;;2.67;;
29686;SDS011;16599;47.078;15.536;2023-09-08T11:12:38;7.25;;;2.85;;
29686;SDS011;16599;47.078;15.536;2023-09-08T11:15:05;18.52;;;3.35;;
29686;SDS011;16599;47.078;15.536;2023-09-08T11:17:36;7.65;;;2.90;;
29686;SDS011;16599;47.078;15.536;2023-09-08T11:20:08;7.35;;;3.10;;
29686;SDS011;16599;47.078;15.536;2023-09-08T11:22:37;5.13;;;3.45;;
29686;SDS011;16599;47.078;15.536;2023-09-08T11:25:08;7.43;;;2.92;;
29686;SDS011;16599;47.078;15.536;2023-09-08T11:27:39;5.13;;;3.35;;
29686;SDS011;16599;47.078;15.536;2023-09-08T11:30:09;6.25;;;3.33;;
29686;SDS011;16599;47.078;15.536;2023-09-08T11:32:39;7.43;;;3.30;;
29686;SDS011;16599;47.078;15.536;2023-09-08T11:35:08;5.28;;;3.05;;
29686;SDS011;16599;47.078;15.536;2023-09-08T11:37:36;7.43;;;3.90;;
29686;SDS011;16599;47.078;15.536;2023-09-08T11:40:10;4.93;;;3.15;;
29686;SDS011;16599;47.078;15.536;2023-09-08T11:42:40;4.47;;;3.00;;
29686;SDS011;16599;47.078;15.536;2023-09-08T11:45:13;6.43;;;3.50;;
29686;SDS011;16599;47.078;15.536;2023-09-08T11:47:45;7.60;;;3.53;;
29686;SDS011;16599;47.078;15.536;2023-09-08T11:50:12;5.78;;;3.50;;
29686;SDS011;16599;47.078;15.536;2023-09-08T11:52:45;7.30;;;3.40;;
29686;SDS011;16599;47.078;15.536;2023-09-08T11:55:17;6.93;;;3.17;;
29686;SDS011;16599;47.078;15.536;2023-09-08T11:57:54;8.13;;;3.83;;
29686;SDS011;16599;47.078;15.536;2023-09-08T12:00:33;7.22;;;3.65;;
29686;SDS011;16599;47.078;15.536;2023-09-08T12:03:10;5.63;;;3.70;;
29686;SDS011;16599;47.078;15.536;2023-09-08T12:05:39;5.70;;;3.70;;
29686;SDS011;16599;47.078;15.536;2023-09-08T12:08:08;7.55;;;3.67;;
29686;SDS011;16599;47.078;15.536;2023-09-08T12:10:41;9.07;;;3.08;;
29686;SDS011;16599;47.078;15.536;2023-09-08T12:16:21;7.00;;;3.58;;
29686;SDS011;16599;47.078;15.536;2023-09-08T12:18:50;4.53;;;3.30;;
29686;SDS011;16599;47.078;15.536;2023-09-08T12:21:17;9.95;;;3.75;;
29686;SDS011;16599;47.078;15.536;2023-09-08T12:23:47;6.00;;;3.40;;
29686;SDS011;16599;47.078;15.536;2023-09-08T12:26:16;4.97;;;3.10;;
29686;SDS011;16599;47.078;15.536;2023-09-08T12:31:47;10.00;;;3.65;;
29686;SDS011;16599;47.078;15.536;2023-09-08T12:34:14;5.43;;;3.47;;
29686;SDS011;16599;47.078;15.536;2023-09-08T12:36:43;6.97;;;3.65;;
29686;SDS011;16599;47.078;15.536;2023-09-08T12:39:11;13.48;;;3.47;;
29686;SDS011;16599;47.078;15.536;2023-09-08T12:41:38;5.90;;;3.67;;
29686;SDS011;16599;47.078;15.536;2023-09-08T12:44:05;9.75;;;4.00;;
29686;SDS011;16599;47.078;15.536;2023-09-08T12:46:32;4.50;;;3.40;;
29686;SDS011;16599;47.078;15.536;2023-09-08T12:49:01;4.32;;;3.25;;
29686;SDS011;16599;47.078;15.536;2023-09-08T12:51:28;4.47;;;2.88;;
29686;SDS011;16599;47.078;15.536;2023-09-08T12:53:55;5.25;;;3.30;;
29686;SDS011;16599;47.078;15.536;2023-09-08T12:56:22;4.72;;;2.90;;
29686;SDS011;16599;47.078;15.536;2023-09-08T12:58:49;4.63;;;3.40;;
29686;SDS011;16599;47.078;15.536;2023-09-08T13:01:17;9.35;;;3.50;;
29686;SDS011;16599;47.078;15.536;2023-09-08T13:03:44;7.88;;;3.65;;
29686;SDS011;16599;47.078;15.536;2023-09-08T13:06:11;7.13;;;3.75;;
29686;SDS011;16599;47.078;15.536;2023-09-08T13:08:38;7.53;;;3.45;;
29686;SDS011;16599;47.078;15.536;2023-09-08T13:11:05;8.52;;;3.33;;
29686;SDS011;16599;47.078;15.536;2023-09-08T13:13:32;11.88;;;3.17;;
29686;SDS011;16599;47.078;15.536;2023-09-08T13:15:59;4.97;;;3.17;;
29686;SDS011;16599;47.078;15.536;2023-09-08T13:18:26;8.52;;;3.30;;
29686;SDS011;16599;47.078;15.536;2023-09-08T13:20:53;4.35;;;3.25;;
29686;SDS011;16599;47.078;15.536;2023-09-08T13:23:20;3.30;;;3.00;;
29686;SDS011;16599;47.078;15.536;2023-09-08T13:25:46;4.70;;;2.97;;
29686;SDS011;16599;47.078;15.536;2023-09-08T13:28:13;6.72;;;3.38;;
29686;SDS011;16599;47.078;15.536;2023-09-08T13:30:40;6.13;;;3.55;;
29686;SDS011;16599;47.078;15.536;2023-09-08T13:33:07;6.65;;;3.33;;
29686;SDS011;16599;47.078;15.536;2023-09-08T13:35:34;4.05;;;3.03;;
29686;SDS011;16599;47.078;15.536;2023-09-08T13:38:01;5.47;;;3.45;;
29686;SDS011;16599;47.078;15.536;2023-09-08T13:40:29;8.52;;;3.13;;
29686;SDS011;16599;47.078;15.536;2023-09-08T13:42:56;5.07;;;3.72;;
29686;SDS011;16599;47.078;15.536;2023-09-08T13:45:23;5.05;;;2.90;;
29686;SDS011;16599;47.078;15.536;2023-09-08T13:47:50;4.63;;;3.03;;
29686;SDS011;16599;47.078;15.536;2023-09-08T13:50:18;5.25;;;3.17;;
29686;SDS011;16599;47.078;15.536;2023-09-08T13:52:46;7.85;;;3.53;;
29686;SDS011;16599;47.078;15.536;2023-09-08T13:55:16;3.70;;;3.13;;
29686;SDS011;16599;47.078;15.536;2023-09-08T13:58:03;5.43;;;3.28;;
29686;SDS011;16599;47.078;15.536;2023-09-08T14:00:35;3.78;;;2.72;;
29686;SDS011;16599;47.078;15.536;2023-09-08T14:03:04;4.93;;;3.40;;
29686;SDS011;16599;47.078;15.536;2023-09-08T14:05:37;4.18;;;2.78;;
29686;SDS011;16599;47.078;15.536;2023-09-08T14:08:11;4.85;;;3.20;;
29686;SDS011;16599;47.078;15.536;2023-09-08T14:10:48;5.28;;;2.92;;
29686;SDS011;16599;47.078;15.536;2023-09-08T14:13:28;3.80;;;2.95;;
29686;SDS011;16599;47.078;15.536;2023-09-08T14:15:56;4.65;;;3.40;;
29686;SDS011;16599;47.078;15.536;2023-09-08T14:18:26;5.72;;;3.40;;
29686;SDS011;16599;47.078;15.536;2023-09-08T14:20:53;4.03;;;3.10;;
29686;SDS011;16599;47.078;15.536;2023-09-08T14:23:20;4.97;;;3.30;;
29686;SDS011;16599;47.078;15.536;2023-09-08T14:25:47;5.55;;;2.85;;
29686;SDS011;16599;47.078;15.536;2023-09-08T14:28:13;6.35;;;3.78;;
29686;SDS011;16599;47.078;15.536;2023-09-08T14:30:40;5.32;;;3.65;;
29686;SDS011;16599;47.078;15.536;2023-09-08T14:33:07;6.50;;;3.45;;
29686;SDS011;16599;47.078;15.536;2023-09-08T14:35:34;3.95;;;2.90;;
29686;SDS011;16599;47.078;15.536;2023-09-08T14:38:01;4.57;;;2.88;;
29686;SDS011;16599;47.078;15.536;2023-09-08T14:40:29;7.43;;;3.58;;
29686;SDS011;16599;47.078;15.536;2023-09-08T14:42:55;4.50;;;3.20;;
29686;SDS011;16599;47.078;15.536;2023-09-08T14:45:22;4.35;;;2.90;;
29686;SDS011;16599;47.078;15.536;2023-09-08T14:47:49;4.80;;;3.67;;
29686;SDS011;16599;47.078;15.536;2023-09-08T14:50:16;6.32;;;3.42;;
29686;SDS011;16599;47.078;15.536;2023-09-08T14:52:43;4.72;;;3.33;;
29686;SDS011;16599;47.078;15.536;2023-09-08T14:55:10;8.45;;;3.33;;
29686;SDS011;16599;47.078;15.536;2023-09-08T14:57:37;3.97;;;3.45;;
29686;SDS011;16599;47.078;15.536;2023-09-08T15:00:04;12.10;;;3.63;;
29686;SDS011;16599;47.078;15.536;2023-09-08T15:02:32;5.95;;;3.22;;